Mc Kinney, Texas
Current Conditions -  °F | °C
As of 10:53 PM on Tuesday 25 Nov 2014 (Local Time) from KTKI Reporting Station
Clear Clear  
Wind Chill: 39°   Ceiling: Unl
Heat Index: 39°   Visibility: 10mi
Dew Point: 31°   Wind: 3mph
Humidity: 73%   Direction: 150°SSE
Pressure: 30.12"   Gusts: NA
Location:  33.1951°N, 96.6642°W
Report Text: KTKI 260453Z AUTO 15003KT 10SM CLR 04/M01 A3012 RMK AO2 SLP210 T00391006
Loading
Personal Weather Stations






























Interactive Weather Map New forecast layout! Learn more

10-Day Weather Forecast

Advertisements
Track Severe Weather on mobile